Time,TemperatureF,DewpointF,PressureIn,WindDirection,WindDirectionDegrees,WindSpeedMPH,WindSpeedGustMPH,Humidity,HourlyPrecipIn,Conditions,Clouds,dailyrainin,SolarRadiationWatts/m^2,SoftwareType,DateUTC
2013-02-07 00:00:00,62.7,58.5,30.04,NNE,31,1.1,1.1,86,0.00,CLR,,0.00,0.0,WeatherDisplay:10.37,2013-02-07 05:00:00,
2013-02-07 00:05:00,62.5,58.9,30.04,NNE,31,2.3,2.3,88,0.00,CLR,,0.00,0.0,WeatherDisplay:10.37,2013-02-07 05:05:00,
2013-02-07 00:11:00,62.7,58.8,30.04,NNE,31,2.3,2.3,87,0.00,CLR,,0.00,0.0,WeatherDisplay:10.37,2013-02-07 05:11:00,
2013-02-07 00:26:00,62.9,59.0,30.04,NNE,31,2.3,2.3,87,0.00,CLR,,0.00,0.0,WeatherDisplay:10.37,2013-02-07 05:26:00,
2013-02-07 00:31:00,62.8,58.9,30.04,NNE,31,2.3,2.3,87,0.00,CLR,,0.00,0.0,WeatherDisplay:10.37,2013-02-07 05:31:00,
2013-02-07 00:48:00,63.3,59.4,30.03,SE,140,3.4,3.4,87,0.00,CLR,,0.00,0.0,WeatherDisplay:10.37,2013-02-07 05:48:00,
2013-02-07 00:56:00,63.8,59.9,30.03,ESE,117,3.4,3.4,87,0.00,CLR,,0.00,0.0,WeatherDisplay:10.37,2013-02-07 05:56:00,
2013-02-07 01:00:00,63.7,59.4,30.03,ESE,115,2.3,2.3,86,0.00,CLR,,0.00,0.0,WeatherDisplay:10.37,2013-02-07 06:00:00,
2013-02-07 01:01:00,63.9,59.6,30.04,ESE,115,2.3,2.3,86,0.00,CLR,,0.00,0.0,WeatherDisplay:10.37,2013-02-07 06:01:00,
2013-02-07 01:06:00,63.9,59.6,30.03,ESE,115,3.4,3.4,86,0.00,CLR,,0.00,0.0,WeatherDisplay:10.37,2013-02-07 06:06:00,
2013-02-07 01:16:00,63.6,59.7,30.03,ESE,115,2.3,2.3,87,0.00,CLR,,0.00,0.0,WeatherDisplay:10.37,2013-02-07 06:16:00,
2013-02-07 01:33:00,62.9,59.3,30.03,ESE,115,2.3,2.3,88,0.00,CLR,,0.00,0.0,WeatherDisplay:10.37,2013-02-07 06:33:00,
2013-02-07 01:38:00,62.9,59.3,30.03,ESE,115,3.4,3.4,88,0.00,CLR,,0.00,0.0,WeatherDisplay:10.37,2013-02-07 06:38:00,
2013-02-07 01:44:00,62.8,59.5,30.03,ESE,115,3.4,3.4,89,0.00,CLR,,0.00,0.0,WeatherDisplay:10.37,2013-02-07 06:44:00,
2013-02-07 01:55:00,62.7,59.7,30.03,ESE,115,1.1,1.1,90,0.00,CLR,,0.00,0.0,WeatherDisplay:10.37,2013-02-07 06:55:00,
2013-02-07 02:00:00,62.7,59.7,30.03,ESE,114,3.4,3.4,90,0.00,CLR,,0.00,0.0,WeatherDisplay:10.37,2013-02-07 07:00:00,
2013-02-07 02:05:00,62.8,59.8,30.03,ESE,114,3.4,3.4,90,0.00,CLR,,0.00,0.0,WeatherDisplay:10.37,2013-02-07 07:05:00,
2013-02-07 02:14:00,62.8,59.8,30.03,ESE,114,4.6,4.6,90,0.00,CLR,,0.00,0.0,WeatherDisplay:10.37,2013-02-07 07:14:00,
2013-02-07 02:19:00,62.8,59.8,30.03,ESE,114,5.0,5.0,90,0.00,CLR,,0.00,0.0,WeatherDisplay:10.37,2013-02-07 07:19:00,
2013-02-07 02:33:00,63.8,61.1,30.02,SE,136,4.6,4.6,91,0.00,CLR,,0.00,0.0,WeatherDisplay:10.37,2013-02-07 07:33:00,
2013-02-07 02:47:00,65.0,62.0,30.01,ESE,114,4.6,4.6,90,0.00,CLR,,0.00,0.0,WeatherDisplay:10.37,2013-02-07 07:47:00,
2013-02-07 02:55:00,65.1,62.1,30.00,ESE,121,10.3,10.3,90,0.00,CLR,,0.00,0.0,WeatherDisplay:10.37,2013-02-07 07:55:00,
2013-02-07 03:00:00,65.1,62.1,30.00,ESE,123,4.6,4.6,90,0.00,CLR,,0.00,0.0,WeatherDisplay:10.37,2013-02-07 08:00:00,
2013-02-07 03:05:00,65.0,62.0,30.00,ESE,116,8.1,8.1,90,0.00,CLR,,0.00,0.0,WeatherDisplay:10.37,2013-02-07 08:05:00,
2013-02-07 03:25:00,64.6,61.9,30.01,SE,138,4.6,4.6,91,0.00,CLR,,0.00,0.0,WeatherDisplay:10.37,2013-02-07 08:25:00,
2013-02-07 03:31:00,64.4,62.0,30.02,SE,139,4.6,4.6,92,0.00,CLR,,0.00,0.0,WeatherDisplay:10.37,2013-02-07 08:31:00,
2013-02-07 03:43:00,64.1,61.7,30.01,SE,139,3.4,3.4,92,0.00,CLR,,0.00,0.0,WeatherDisplay:10.37,2013-02-07 08:43:00,
2013-02-07 03:48:00,64.0,61.9,30.01,SE,135,3.4,3.4,93,0.00,CLR,,0.00,0.0,WeatherDisplay:10.37,2013-02-07 08:48:00,
2013-02-07 03:54:00,64.0,61.9,30.02,SE,135,4.6,4.6,93,0.00,CLR,,0.00,0.0,WeatherDisplay:10.37,2013-02-07 08:54:00,
2013-02-07 03:59:00,64.0,61.9,30.01,SE,132,4.6,4.7,93,0.00,CLR,,0.00,0.0,WeatherDisplay:10.37,2013-02-07 08:59:00,
2013-02-07 04:00:00,63.8,61.7,30.01,SE,132,4.0,4.3,93,0.00,CLR,,0.00,0.0,WeatherDisplay:10.37,2013-02-07 09:00:00,
2013-02-07 04:04:00,63.9,61.8,30.01,SE,128,6.0,6.0,93,0.00,CLR,,0.00,0.0,WeatherDisplay:10.37,2013-02-07 09:04:00,
2013-02-07 04:09:00,63.8,61.7,30.01,SE,132,3.4,4.3,93,0.00,CLR,,0.00,0.0,WeatherDisplay:10.37,2013-02-07 09:09:00,
2013-02-07 04:14:00,63.8,61.7,30.01,SE,130,5.8,5.8,93,0.00,CLR,,0.00,0.0,WeatherDisplay:10.37,2013-02-07 09:14:00,
2013-02-07 04:19:00,63.8,62.0,30.01,SE,132,4.0,4.0,94,0.00,CLR,,0.00,0.0,WeatherDisplay:10.37,2013-02-07 09:19:00,
2013-02-07 04:36:00,63.7,61.9,30.01,SE,133,3.0,3.0,94,0.00,CLR,,0.00,0.0,WeatherDisplay:10.37,2013-02-07 09:36:00,
2013-02-07 04:46:00,63.6,61.8,30.01,SE,133,1.1,1.1,94,0.00,CLR,,0.00,0.0,WeatherDisplay:10.37,2013-02-07 09:46:00,
2013-02-07 04:52:00,63.5,61.7,30.02,SE,133,2.3,2.3,94,0.00,CLR,,0.00,0.0,WeatherDisplay:10.37,2013-02-07 09:52:00,
2013-02-07 04:57:00,63.4,61.6,30.02,SE,133,3.4,3.4,94,0.00,CLR,,0.00,0.0,WeatherDisplay:10.37,2013-02-07 09:57:00,
2013-02-07 05:00:00,63.0,61.5,30.02,SE,133,3.4,3.4,95,0.00,CLR,,0.00,0.0,WeatherDisplay:10.37,2013-02-07 10:00:00,
2013-02-07 05:02:00,63.1,61.3,30.02,SE,133,3.0,3.0,94,0.00,CLR,,0.00,0.0,WeatherDisplay:10.37,2013-02-07 10:02:00,
2013-02-07 05:07:00,63.0,61.2,30.02,SE,133,3.0,3.0,94,0.00,CLR,,0.00,0.0,WeatherDisplay:10.37,2013-02-07 10:07:00,
2013-02-07 05:12:00,63.0,61.5,30.02,SE,133,3.4,3.4,95,0.00,CLR,,0.00,0.0,WeatherDisplay:10.37,2013-02-07 10:12:00,
2013-02-07 05:24:00,63.0,61.5,30.02,SE,133,5.0,5.0,95,0.00,CLR,,0.00,0.0,WeatherDisplay:10.37,2013-02-07 10:24:00,
2013-02-07 05:34:00,63.0,61.5,30.02,SE,133,3.4,3.4,95,0.00,CLR,,0.00,0.0,WeatherDisplay:10.37,2013-02-07 10:34:00,
2013-02-07 05:39:00,63.1,61.9,30.02,SE,133,3.4,3.4,96,0.00,CLR,,0.00,0.0,WeatherDisplay:10.37,2013-02-07 10:39:00,
2013-02-07 05:56:00,62.9,61.7,30.03,SE,133,3.4,3.4,96,0.00,CLR,,0.00,0.0,WeatherDisplay:10.37,2013-02-07 10:56:00,
2013-02-07 06:00:00,62.8,61.6,30.02,SE,133,4.6,4.6,96,0.00,CLR,,0.00,0.0,WeatherDisplay:10.37,2013-02-07 11:00:00,
2013-02-07 06:01:00,62.9,61.7,30.02,SE,133,2.3,2.3,96,0.00,CLR,,0.00,0.0,WeatherDisplay:10.37,2013-02-07 11:01:00,
2013-02-07 06:06:00,62.8,61.6,30.02,SE,133,4.6,4.6,96,0.00,CLR,,0.00,0.0,WeatherDisplay:10.37,2013-02-07 11:06:00,
2013-02-07 06:12:00,62.8,61.6,30.02,SE,133,3.4,3.4,96,0.00,CLR,,0.00,0.0,WeatherDisplay:10.37,2013-02-07 11:12:00,
2013-02-07 06:17:00,62.7,61.5,30.02,SE,133,4.6,4.6,96,0.00,CLR,,0.00,0.0,WeatherDisplay:10.37,2013-02-07 11:17:00,
2013-02-07 06:25:00,62.8,61.6,30.02,SE,133,3.4,3.4,96,0.00,CLR,,0.00,0.0,WeatherDisplay:10.37,2013-02-07 11:25:00,
2013-02-07 06:31:00,62.7,61.5,30.02,SE,133,3.4,3.4,96,0.00,CLR,,0.00,0.0,WeatherDisplay:10.37,2013-02-07 11:31:00,
2013-02-07 06:44:00,62.6,61.4,30.03,SE,133,3.4,3.4,96,0.00,CLR,,0.00,0.0,WeatherDisplay:10.37,2013-02-07 11:44:00,
2013-02-07 06:56:00,62.5,61.3,30.02,SE,133,5.0,5.0,96,0.00,CLR,,0.00,0.0,WeatherDisplay:10.37,2013-02-07 11:56:00,
2013-02-07 07:00:00,62.6,61.4,30.03,SE,133,3.4,3.4,96,0.00,OVC,,0.00,0.0,WeatherDisplay:10.37,2013-02-07 12:00:00,
2013-02-07 07:01:00,62.5,61.3,30.02,SE,133,4.6,4.6,96,0.00,OVC,,0.00,0.0,WeatherDisplay:10.37,2013-02-07 12:01:00,
2013-02-07 07:06:00,62.6,61.7,30.03,SE,133,3.4,3.4,97,0.00,OVC,,0.00,0.0,WeatherDisplay:10.37,2013-02-07 12:06:00,
2013-02-07 07:14:00,62.6,61.4,30.03,SE,133,3.4,3.4,96,0.00,OVC,,0.00,5.0,WeatherDisplay:10.37,2013-02-07 12:14:00,
2013-02-07 07:31:00,62.7,61.5,30.03,SE,133,4.6,4.6,96,0.00,OVC,,0.00,7.0,WeatherDisplay:10.37,2013-02-07 12:31:00,
2013-02-07 07:48:00,63.1,62.2,30.03,SE,133,4.6,4.6,97,0.00,OVC,,0.00,25.0,WeatherDisplay:10.37,2013-02-07 12:48:00,
2013-02-07 07:56:00,63.3,62.1,30.03,SE,133,4.6,4.6,96,0.00,OVC,,0.00,26.0,WeatherDisplay:10.37,2013-02-07 12:56:00,
2013-02-07 08:00:00,63.8,62.6,30.03,SE,130,6.9,6.9,96,0.00,OVC,,0.00,35.0,WeatherDisplay:10.37,2013-02-07 13:00:00,
2013-02-07 08:01:00,63.5,62.3,30.03,SE,133,4.6,4.6,96,0.00,OVC,,0.00,25.0,WeatherDisplay:10.37,2013-02-07 13:01:00,
2013-02-07 08:06:00,63.6,62.4,30.03,SE,132,6.0,6.0,96,0.00,OVC,,0.00,32.0,WeatherDisplay:10.37,2013-02-07 13:06:00,
2013-02-07 08:13:00,63.9,62.7,30.03,SE,134,9.2,9.2,96,0.00,OVC,,0.00,40.0,WeatherDisplay:10.37,2013-02-07 13:13:00,
2013-02-07 08:20:00,64.3,62.8,30.01,SE,131,10.3,10.3,95,0.00,OVC,,0.00,54.0,WeatherDisplay:10.37,2013-02-07 13:20:00,
2013-02-07 08:34:00,65.0,62.9,30.03,SE,134,5.0,5.0,93,0.00,OVC,,0.00,56.0,WeatherDisplay:10.37,2013-02-07 13:34:00,
2013-02-07 08:43:00,65.4,63.0,30.02,SE,134,10.3,10.3,92,0.00,OVC,,0.00,84.0,WeatherDisplay:10.37,2013-02-07 13:43:00,
2013-02-07 08:48:00,65.8,63.4,30.03,SSE,152,6.0,6.0,92,0.00,OVC,,0.00,113.0,WeatherDisplay:10.37,2013-02-07 13:48:00,
2013-02-07 08:56:00,66.6,63.6,30.02,SE,128,11.5,11.5,90,0.00,OVC,,0.00,77.0,WeatherDisplay:10.37,2013-02-07 13:56:00,
2013-02-07 09:00:00,66.9,63.6,30.03,ESE,120,9.2,9.2,89,0.00,OVC,,0.00,121.0,WeatherDisplay:10.37,2013-02-07 14:00:00,
2013-02-07 09:01:00,66.7,63.7,30.02,SE,141,8.1,8.1,90,0.00,OVC,,0.00,93.0,WeatherDisplay:10.37,2013-02-07 14:01:00,
2013-02-07 09:06:00,66.8,63.8,30.03,ESE,121,5.8,5.8,90,0.00,OVC,,0.00,105.0,WeatherDisplay:10.37,2013-02-07 14:06:00,
2013-02-07 09:15:00,67.5,64.1,30.04,SE,136,4.6,4.6,89,0.00,OVC,,0.00,207.0,WeatherDisplay:10.37,2013-02-07 14:15:00,
2013-02-07 09:20:00,68.2,64.2,30.04,ESE,123,5.8,5.8,87,0.00,OVC,,0.00,167.0,WeatherDisplay:10.37,2013-02-07 14:20:00,
2013-02-07 09:25:00,68.7,64.7,30.03,SE,132,4.6,4.6,87,0.00,OVC,,0.00,165.0,WeatherDisplay:10.37,2013-02-07 14:25:00,
2013-02-07 09:32:00,68.8,64.1,30.03,SSE,148,11.5,11.5,85,0.00,OVC,,0.00,118.0,WeatherDisplay:10.37,2013-02-07 14:32:00,
2013-02-07 09:37:00,68.8,64.1,30.03,SSE,153,10.3,10.3,85,0.00,OVC,,0.00,297.0,WeatherDisplay:10.37,2013-02-07 14:37:00,
2013-02-07 09:43:00,69.6,64.5,30.03,SSE,155,13.8,13.8,84,0.00,OVC,,0.00,311.0,WeatherDisplay:10.37,2013-02-07 14:43:00,
2013-02-07 09:56:00,70.1,64.7,30.03,SSE,152,14.9,14.9,83,0.00,BKN,,0.00,355.0,WeatherDisplay:10.37,2013-02-07 14:56:00,
2013-02-07 10:00:00,71.2,65.1,30.03,SSE,155,6.9,8.3,81,0.00,OVC,,0.00,271.0,WeatherDisplay:10.37,2013-02-07 15:00:00,
2013-02-07 10:01:00,70.8,65.0,30.03,SE,132,8.1,8.1,82,0.00,BKN,,0.00,424.0,WeatherDisplay:10.37,2013-02-07 15:01:00,
2013-02-07 10:06:00,71.0,64.9,30.03,SE,146,11.5,11.5,81,0.00,BKN,,0.00,462.0,WeatherDisplay:10.37,2013-02-07 15:06:00,
2013-02-07 10:18:00,71.7,64.8,30.02,ESE,118,10.3,10.3,79,0.00,OVC,,0.00,111.0,WeatherDisplay:10.37,2013-02-07 15:18:00,
2013-02-07 10:34:00,72.5,64.9,30.01,SSE,157,17.3,17.3,77,0.00,OVC,,0.00,220.0,WeatherDisplay:10.37,2013-02-07 15:34:00,
2013-02-07 10:49:00,73.3,64.9,30.00,SE,144,14.9,14.9,75,0.00,BKN,,0.00,443.0,WeatherDisplay:10.37,2013-02-07 15:49:00,
2013-02-07 10:54:00,73.7,65.3,30.00,SSE,152,17.3,17.3,75,0.00,BKN,,0.00,499.0,WeatherDisplay:10.37,2013-02-07 15:54:00,
2013-02-07 10:59:00,73.7,64.9,29.99,SSE,158,17.3,17.3,74,0.00,BKN,,0.00,148.0,WeatherDisplay:10.37,2013-02-07 15:59:00,
2013-02-07 11:00:00,73.4,65.0,30.00,SSE,153,11.5,11.5,75,0.00,OVC,,0.00,327.0,WeatherDisplay:10.37,2013-02-07 16:00:00,
2013-02-07 11:04:00,73.2,64.4,30.00,SSE,155,16.1,16.1,74,0.00,OVC,,0.00,260.0,WeatherDisplay:10.37,2013-02-07 16:04:00,
2013-02-07 11:09:00,73.3,64.9,30.00,SSE,149,15.0,15.0,75,0.00,OVC,,0.00,327.0,WeatherDisplay:10.37,2013-02-07 16:09:00,
2013-02-07 11:23:00,74.6,65.0,29.99,SSE,159,11.5,11.5,72,0.00,OVC,,0.00,311.0,WeatherDisplay:10.37,2013-02-07 16:23:00,
2013-02-07 11:34:00,75.5,65.0,29.98,SE,142,11.5,11.5,70,0.00,BKN,,0.00,573.0,WeatherDisplay:10.37,2013-02-07 16:34:00,
2013-02-07 11:39:00,76.2,64.9,29.98,SSE,152,19.5,19.5,68,0.00,SCT,,0.00,663.0,WeatherDisplay:10.37,2013-02-07 16:39:00,
2013-02-07 11:49:00,76.5,63.0,29.98,SE,136,16.1,16.1,63,0.00,OVC,,0.00,585.0,WeatherDisplay:10.37,2013-02-07 16:49:00,
2013-02-07 11:56:00,77.4,63.4,29.98,SSE,163,13.8,13.8,62,0.00,SCT,,0.00,728.0,WeatherDisplay:10.37,2013-02-07 16:56:00,
2013-02-07 12:00:00,78.3,61.8,29.98,South,169,10.3,10.3,57,0.00,OVC,,0.00,330.0,WeatherDisplay:10.37,2013-02-07 17:00:00,
2013-02-07 12:01:00,78.0,63.9,29.98,SSE,148,10.3,10.3,62,0.00,BKN,,0.00,408.0,WeatherDisplay:10.37,2013-02-07 17:01:00,
2013-02-07 12:06:00,78.8,62.8,29.98,SSE,164,9.2,9.2,58,0.00,OVC,,0.00,323.0,WeatherDisplay:10.37,2013-02-07 17:06:00,
2013-02-07 12:30:00,77.8,61.3,29.97,SSE,154,11.5,11.5,57,0.00,OVC,,0.00,295.0,WeatherDisplay:10.37,2013-02-07 17:30:00,
2013-02-07 12:37:00,77.9,60.4,29.96,SSE,159,14.9,14.9,55,0.00,OVC,,0.00,297.0,WeatherDisplay:10.37,2013-02-07 17:37:00,
2013-02-07 12:56:00,78.7,61.7,29.95,South,175,8.1,8.1,56,0.00,OVC,,0.00,288.0,WeatherDisplay:10.37,2013-02-07 17:56:00,
2013-02-07 13:00:00,78.9,61.9,29.94,SSW,206,8.1,8.1,56,0.00,SCT,,0.00,642.0,WeatherDisplay:10.37,2013-02-07 18:00:00,
2013-02-07 13:01:00,78.3,61.3,29.95,SSE,159,8.1,8.1,56,0.00,OVC,,0.00,246.0,WeatherDisplay:10.37,2013-02-07 18:01:00,
2013-02-07 13:06:00,78.2,61.7,29.94,SSE,159,10.3,10.3,57,0.00,OVC,,0.00,234.0,WeatherDisplay:10.37,2013-02-07 18:06:00,
2013-02-07 13:44:00,79.5,63.9,29.92,SSE,167,16.1,16.1,59,0.00,BKN,,0.00,559.0,WeatherDisplay:10.37,2013-02-07 18:44:00,
2013-02-07 13:51:00,79.2,63.6,29.92,SSE,164,10.0,10.0,59,0.00,SCT,,0.00,582.0,WeatherDisplay:10.37,2013-02-07 18:51:00,
2013-02-07 13:56:00,79.2,64.1,29.91,SE,136,16.1,16.1,60,0.00,SCT,,0.00,615.0,WeatherDisplay:10.37,2013-02-07 18:56:00,
2013-02-07 14:00:00,78.8,63.7,29.91,SSE,167,14.9,14.9,60,0.00,SCT,,0.00,594.0,WeatherDisplay:10.37,2013-02-07 19:00:00,
2013-02-07 14:01:00,78.7,64.1,29.91,SW,228,11.5,11.5,61,0.00,SCT,,0.00,601.0,WeatherDisplay:10.37,2013-02-07 19:01:00,
2013-02-07 14:06:00,78.7,63.2,29.90,SSE,161,17.3,17.3,59,0.00,OVC,,0.00,455.0,WeatherDisplay:10.37,2013-02-07 19:06:00,
2013-02-07 14:19:00,79.3,62.7,29.90,SE,136,18.4,18.4,57,0.00,SCT,,0.00,557.0,WeatherDisplay:10.37,2013-02-07 19:19:00,
2013-02-07 14:45:00,78.5,63.5,29.90,South,184,11.5,11.5,60,0.00,OVC,,0.00,197.0,WeatherDisplay:10.37,2013-02-07 19:45:00,
2013-02-07 14:56:00,77.3,64.6,29.90,WSW,238,7.0,7.0,65,0.00,OVC,,0.00,121.0,WeatherDisplay:10.37,2013-02-07 19:56:00,
2013-02-07 15:00:00,76.5,65.1,29.89,WSW,246,13.8,13.8,68,0.00,OVC,,0.00,492.0,WeatherDisplay:10.37,2013-02-07 20:00:00,
2013-02-07 15:01:00,76.6,64.4,29.90,SSW,201,11.5,11.5,66,0.00,OVC,,0.00,109.0,WeatherDisplay:10.37,2013-02-07 20:01:00,
2013-02-07 15:06:00,76.1,64.8,29.90,South,169,5.8,5.8,68,0.00,OVC,,0.00,234.0,WeatherDisplay:10.37,2013-02-07 20:06:00,
2013-02-07 15:13:00,77.2,65.8,29.89,South,190,8.1,8.1,68,0.00,SCT,,0.00,455.0,WeatherDisplay:10.37,2013-02-07 20:13:00,
2013-02-07 15:18:00,77.5,65.7,29.90,SE,144,11.5,11.5,67,0.00,BKN,,0.00,306.0,WeatherDisplay:10.37,2013-02-07 20:18:00,
2013-02-07 15:30:00,76.6,64.8,29.90,SW,230,8.1,8.1,67,0.00,OVC,,0.00,207.0,WeatherDisplay:10.37,2013-02-07 20:30:00,
2013-02-07 15:56:00,75.6,65.5,29.90,SSE,153,6.9,6.9,71,0.00,OVC,,0.00,83.0,WeatherDisplay:10.37,2013-02-07 20:56:00,
2013-02-07 16:00:00,74.5,65.3,29.91,SSW,202,9.2,9.2,73,0.00,OVC,,0.00,30.0,WeatherDisplay:10.37,2013-02-07 21:00:00,
2013-02-07 16:01:00,75.2,65.6,29.91,SSE,159,6.9,6.9,72,0.00,OVC,,0.00,63.0,WeatherDisplay:10.37,2013-02-07 21:01:00,
2013-02-07 16:06:00,74.8,65.6,29.92,South,171,8.0,8.0,73,0.00,OVC,,0.00,35.0,WeatherDisplay:10.37,2013-02-07 21:06:00,
2013-02-07 16:16:00,74.1,65.7,29.91,South,185,10.3,10.3,75,0.00,OVC,,0.00,47.0,WeatherDisplay:10.37,2013-02-07 21:16:00,
2013-02-07 16:35:00,72.8,65.9,29.89,SSE,167,4.6,4.6,79,0.00,OVC,,0.00,44.0,WeatherDisplay:10.37,2013-02-07 21:35:00,
2013-02-07 16:56:00,72.6,65.7,29.93,SW,232,4.6,4.6,79,0.00,OVC,,0.00,11.0,WeatherDisplay:10.37,2013-02-07 21:56:00,
2013-02-07 17:00:00,71.6,66.2,29.90,SE,137,11.5,11.5,83,0.00,OVC,,0.00,11.0,WeatherDisplay:10.37,2013-02-07 22:00:00,
2013-02-07 17:01:00,72.5,66.0,29.92,SSE,157,5.8,5.8,80,0.00,OVC,,0.00,12.0,WeatherDisplay:10.37,2013-02-07 22:01:00,
2013-02-07 17:06:00,71.9,66.1,29.91,SSE,162,9.2,9.2,82,0.00,OVC,,0.00,12.0,WeatherDisplay:10.37,2013-02-07 22:06:00,
2013-02-07 17:13:00,71.2,66.1,29.89,South,169,5.8,5.8,84,0.00,OVC,,0.00,9.0,WeatherDisplay:10.37,2013-02-07 22:13:00,
2013-02-07 17:34:00,69.9,66.2,29.89,SSW,202,7.0,7.0,88,0.01,OVC,,0.01,14.0,WeatherDisplay:10.37,2013-02-07 22:34:00,
2013-02-07 17:42:00,70.1,66.4,29.88,SSE,163,14.9,14.9,88,0.01,OVC,,0.01,11.0,WeatherDisplay:10.37,2013-02-07 22:42:00,
2013-02-07 17:49:00,70.2,66.1,29.90,SSE,158,9.2,9.2,87,0.01,OVC,,0.01,7.0,WeatherDisplay:10.37,2013-02-07 22:49:00,
2013-02-07 17:54:00,70.3,66.2,29.91,SSE,149,8.1,8.1,87,0.01,OVC,,0.01,0.0,WeatherDisplay:10.37,2013-02-07 22:54:00,
2013-02-07 17:59:00,70.3,66.2,29.90,SW,225,6.9,6.9,87,0.01,OVC,,0.01,0.0,WeatherDisplay:10.37,2013-02-07 22:59:00,
2013-02-07 18:00:00,70.4,66.3,29.89,SW,216,16.1,16.1,87,0.01,OVC,,0.01,0.0,WeatherDisplay:10.37,2013-02-07 23:00:00,
2013-02-07 18:04:00,70.3,66.2,29.89,SSE,156,6.0,6.0,87,0.01,OVC,,0.01,0.0,WeatherDisplay:10.37,2013-02-07 23:04:00,
2013-02-07 18:09:00,70.4,66.3,29.89,SSE,159,16.1,16.1,87,0.01,OVC,,0.01,0.0,WeatherDisplay:10.37,2013-02-07 23:09:00,
2013-02-07 18:19:00,70.4,66.3,29.88,SSE,159,10.3,10.3,87,0.00,OVC,,0.01,0.0,WeatherDisplay:10.37,2013-02-07 23:19:00,
2013-02-07 18:33:00,70.7,66.3,29.88,South,169,9.2,9.2,86,0.00,OVC,,0.01,0.0,WeatherDisplay:10.37,2013-02-07 23:33:00,
2013-02-07 18:42:00,70.8,66.4,29.86,SSE,147,16.0,16.0,86,0.00,OVC,,0.01,0.0,WeatherDisplay:10.37,2013-02-07 23:42:00,
2013-02-07 18:51:00,70.8,66.7,29.87,SSE,158,14.9,14.9,87,0.00,CLR,,0.01,0.0,WeatherDisplay:10.37,2013-02-07 23:51:00,
2013-02-07 18:56:00,70.8,66.4,29.87,South,180,11.5,11.5,86,0.00,CLR,,0.01,0.0,WeatherDisplay:10.37,2013-02-07 23:56:00,
2013-02-07 19:00:00,70.8,66.7,29.87,SSE,164,8.1,8.1,87,0.00,CLR,,0.01,0.0,WeatherDisplay:10.37,2013-02-08 00:00:00,
2013-02-07 19:01:00,70.8,66.7,29.87,SSE,153,9.2,9.2,87,0.00,CLR,,0.01,0.0,WeatherDisplay:10.37,2013-02-08 00:01:00,
2013-02-07 19:06:00,70.8,66.7,29.86,SSE,150,11.5,11.5,87,0.00,CLR,,0.01,0.0,WeatherDisplay:10.37,2013-02-08 00:06:00,
2013-02-07 19:13:00,70.8,66.7,29.89,SSE,165,3.4,3.4,87,0.00,CLR,,0.01,0.0,WeatherDisplay:10.37,2013-02-08 00:13:00,
2013-02-07 19:38:00,70.5,66.8,29.88,SSW,194,11.5,11.5,88,0.01,,,0.02,0.0,WeatherDisplay:10.37,2013-02-08 00:38:00,
2013-02-07 19:49:00,70.2,66.5,29.89,SW,215,4.6,4.6,88,0.01,CLR,,0.02,0.0,WeatherDisplay:10.37,2013-02-08 00:49:00,
2013-02-07 19:55:00,70.1,66.7,29.89,SW,225,4.6,4.6,89,0.01,CLR,,0.02,0.0,WeatherDisplay:10.37,2013-02-08 00:55:00,
2013-02-07 20:00:00,70.2,66.8,29.89,SSW,194,10.3,10.3,89,0.01,CLR,,0.02,0.0,WeatherDisplay:10.37,2013-02-08 01:00:00,
2013-02-07 20:05:00,70.4,67.0,29.89,SW,228,10.3,10.3,89,0.01,CLR,,0.02,0.0,WeatherDisplay:10.37,2013-02-08 01:05:00,
2013-02-07 20:29:00,70.3,66.2,29.89,SSE,158,6.9,6.9,87,0.00,CLR,,0.02,0.0,WeatherDisplay:10.37,2013-02-08 01:29:00,
2013-02-07 20:49:00,69.5,65.1,29.90,SW,219,5.8,5.8,86,0.00,CLR,,0.02,0.0,WeatherDisplay:10.37,2013-02-08 01:49:00,
2013-02-07 20:56:00,69.3,64.9,29.90,SSE,161,5.8,5.8,86,0.00,CLR,,0.02,0.0,WeatherDisplay:10.37,2013-02-08 01:56:00,
2013-02-07 21:00:00,69.4,65.4,29.90,SSE,163,6.9,6.9,87,0.00,CLR,,0.02,0.0,WeatherDisplay:10.37,2013-02-08 02:00:00,
2013-02-07 21:01:00,69.3,64.9,29.90,South,171,6.9,6.9,86,0.00,CLR,,0.02,0.0,WeatherDisplay:10.37,2013-02-08 02:01:00,
2013-02-07 21:06:00,69.4,65.4,29.90,South,190,3.4,3.4,87,0.00,CLR,,0.02,0.0,WeatherDisplay:10.37,2013-02-08 02:06:00,
2013-02-07 21:11:00,69.5,65.8,29.90,SW,215,5.0,5.0,88,0.00,CLR,,0.02,0.0,WeatherDisplay:10.37,2013-02-08 02:11:00,
2013-02-07 21:26:00,69.8,66.1,29.90,South,182,3.4,3.4,88,0.00,CLR,,0.02,0.0,WeatherDisplay:10.37,2013-02-08 02:26:00,
2013-02-07 21:31:00,69.8,66.1,29.90,South,180,3.4,3.4,88,0.00,CLR,,0.02,0.0,WeatherDisplay:10.37,2013-02-08 02:31:00,
2013-02-07 21:47:00,69.8,66.1,29.89,SSE,164,4.6,4.6,88,0.00,CLR,,0.02,0.0,WeatherDisplay:10.37,2013-02-08 02:47:00,
2013-02-07 21:56:00,69.6,66.2,29.90,SW,219,8.1,8.1,89,0.00,CLR,,0.02,0.0,WeatherDisplay:10.37,2013-02-08 02:56:00,
2013-02-07 22:00:00,69.4,66.0,29.90,SSE,164,6.9,6.9,89,0.00,CLR,,0.02,0.0,WeatherDisplay:10.37,2013-02-08 03:00:00,
2013-02-07 22:01:00,69.6,66.2,29.90,South,181,5.8,5.8,89,0.00,CLR,,0.02,0.0,WeatherDisplay:10.37,2013-02-08 03:01:00,
2013-02-07 22:06:00,69.5,66.1,29.90,SSE,164,3.4,3.4,89,0.00,CLR,,0.02,0.0,WeatherDisplay:10.37,2013-02-08 03:06:00,
2013-02-07 22:40:00,69.8,66.4,29.90,South,178,6.9,6.9,89,0.00,CLR,,0.02,0.0,WeatherDisplay:10.37,2013-02-08 03:40:00,
2013-02-07 22:45:00,69.9,66.5,29.90,South,185,9.2,9.2,89,0.00,CLR,,0.02,0.0,WeatherDisplay:10.37,2013-02-08 03:45:00,
2013-02-07 22:54:00,70.0,66.6,29.89,SSE,159,8.1,8.1,89,0.00,CLR,,0.02,0.0,WeatherDisplay:10.37,2013-02-08 03:54:00,
2013-02-07 22:59:00,70.0,66.6,29.89,SSW,209,4.6,4.6,89,0.00,CLR,,0.02,0.0,WeatherDisplay:10.37,2013-02-08 03:59:00,
2013-02-07 23:00:00,70.3,66.9,29.90,SSW,205,6.9,6.9,89,0.00,CLR,,0.02,0.0,WeatherDisplay:10.37,2013-02-08 04:00:00,
2013-02-07 23:04:00,70.1,66.7,29.89,SW,217,4.6,4.6,89,0.00,CLR,,0.02,0.0,WeatherDisplay:10.37,2013-02-08 04:04:00,
2013-02-07 23:09:00,70.2,66.8,29.89,SW,221,6.9,6.9,89,0.00,CLR,,0.02,0.0,WeatherDisplay:10.37,2013-02-08 04:09:00,
2013-02-07 23:47:00,69.9,66.8,29.89,SSE,167,6.9,6.9,90,0.00,CLR,,0.02,0.0,WeatherDisplay:10.37,2013-02-08 04:47:00,
2013-02-07 23:55:00,69.8,67.1,29.89,SSW,213,8.1,8.1,91,0.00,CLR,,0.02,0.0,WeatherDisplay:10.37,2013-02-08 04:55:00,